Time;durP1;ratioP1;P1;durP2;ratioP2;P2;SDS_P1;SDS_P2;PMS_P1;PMS_P2;Temp;Humidity;BMP_temperature;BMP_pressure;BME280_temperature;BME280_humidity;BME280_pressure;Samples;Min_cycle;Max_cycle;Signal;HPM_P1;HPM_P2
2022/04/11 00:01:32;;;;;;;5.20;3.88;;;21.20;57.30;;;;;;5082453;28;20033;-75
2022/04/11 00:03:59;;;;;;;5.72;3.58;;;21.20;57.40;;;;;;5057951;28;20091;-74
2022/04/11 00:06:51;;;;;;;7.90;3.42;;;21.20;57.30;;;;;;5057119;28;20048;-75
2022/04/11 00:09:17;;;;;;;3.67;3.22;;;21.20;57.30;;;;;;5076064;28;20056;-74
2022/04/11 00:11:43;;;;;;;4.93;3.20;;;21.10;57.40;;;;;;5075578;28;20029;-75
2022/04/11 00:14:09;;;;;;;3.25;2.83;;;21.20;57.10;;;;;;5074371;28;20048;-75
2022/04/11 00:16:36;;;;;;;6.40;2.92;;;21.30;57.30;;;;;;5078025;28;20084;-74
2022/04/11 00:19:02;;;;;;;5.28;2.70;;;21.20;57.30;;;;;;5077517;28;20060;-75
2022/04/11 00:21:28;;;;;;;6.40;3.35;;;21.10;57.40;;;;;;5081155;28;20067;-75
2022/04/11 00:23:55;;;;;;;3.83;3.03;;;21.20;57.20;;;;;;5077524;28;20037;-75
2022/04/11 00:26:21;;;;;;;4.93;2.75;;;21.30;57.20;;;;;;5082977;28;20070;-74
2022/04/11 00:28:47;;;;;;;3.83;2.70;;;21.30;56.90;;;;;;5094712;28;20119;-75
2022/04/11 00:31:13;;;;;;;4.65;2.97;;;21.40;56.90;;;;;;5087463;28;20029;-75
2022/04/11 00:33:39;;;;;;;4.18;2.85;;;21.30;56.40;;;;;;5076404;28;20021;-75
2022/04/11 00:36:05;;;;;;;4.47;2.63;;;21.40;56.80;;;;;;5073833;28;20047;-76
2022/04/11 00:38:32;;;;;;;5.03;2.20;;;21.40;56.80;;;;;;5090496;28;20043;-74
2022/04/11 00:40:58;;;;;;;4.97;2.80;;;21.50;56.80;;;;;;5077295;28;20049;-75
2022/04/11 00:43:31;;;;;;;5.05;2.70;;;21.50;56.40;;;;;;5077418;28;20045;-76
2022/04/11 00:45:57;;;;;;;6.40;2.80;;;21.60;56.40;;;;;;5057525;28;20037;-75
2022/04/11 00:48:24;;;;;;;3.35;2.45;;;21.60;55.40;;;;;;5056718;28;20041;-76
2022/04/11 00:50:53;;;;;;;3.80;2.30;;;21.70;55.30;;;;;;5064750;28;20044;-74
2022/04/11 00:53:19;;;;;;;2.75;2.28;;;21.80;55.80;;;;;;5091747;28;20033;-77
2022/04/11 00:55:47;;;;;;;4.35;2.20;;;21.70;56.00;;;;;;5094193;28;20062;-75
2022/04/11 00:58:13;;;;;;;3.28;2.53;;;21.80;56.20;;;;;;5077430;28;20048;-75
2022/04/11 01:00:40;;;;;;;5.88;2.88;;;21.80;55.10;;;;;;5078949;28;20079;-75
2022/04/11 01:03:06;;;;;;;4.15;1.92;;;21.80;55.60;;;;;;5074850;28;20040;-74
2022/04/11 01:05:33;;;;;;;3.65;2.00;;;21.90;55.40;;;;;;5073596;28;20036;-75
2022/04/11 01:08:07;;;;;;;3.60;2.22;;;21.90;55.70;;;;;;5090202;28;20091;-75
2022/04/11 01:10:34;;;;;;;5.10;2.40;;;21.90;55.80;;;;;;5097229;28;20051;-75
2022/04/11 01:13:01;;;;;;;3.03;2.17;;;22.00;54.80;;;;;;5097154;28;20040;-75
2022/04/11 01:15:27;;;;;;;2.90;1.98;;;21.80;54.70;;;;;;5091150;28;20128;-74
2022/04/11 01:17:54;;;;;;;3.53;2.05;;;22.00;55.80;;;;;;5078503;28;20041;-75
2022/04/11 01:20:20;;;;;;;4.07;1.98;;;21.90;55.90;;;;;;5077527;28;20045;-74
2022/04/11 01:22:47;;;;;;;6.45;2.25;;;21.90;55.50;;;;;;5088698;28;20106;-75
2022/04/11 01:25:17;;;;;;;3.25;2.13;;;22.00;55.00;;;;;;5092411;28;20045;-75
2022/04/11 01:27:45;;;;;;;3.17;2.22;;;22.00;55.70;;;;;;5068324;28;20408;-75
2022/04/11 01:30:13;;;;;;;3.92;2.67;;;21.80;55.50;;;;;;5072008;28;20052;-77
2022/04/11 01:32:44;;;;;;;;;;;22.00;54.90;;;;;;5078328;28;20033;-75
2022/04/11 01:35:18;;;;;;;5.50;2.20;;;21.90;55.90;;;;;;5093514;28;19916;-74
2022/04/11 01:37:45;;;;;;;7.25;2.40;;;21.90;55.60;;;;;;5080279;28;20040;-75
2022/04/11 01:40:11;;;;;;;5.53;2.40;;;21.80;55.80;;;;;;5075790;28;20055;-75
2022/04/11 01:42:38;;;;;;;4.57;2.40;;;21.80;55.90;;;;;;5083470;28;20117;-75
2022/04/11 01:45:09;;;;;;;4.32;2.33;;;21.60;55.80;;;;;;5095584;28;20040;-75
2022/04/11 01:47:37;;;;;;;4.25;2.42;;;21.70;55.80;;;;;;5067471;28;20048;-74
2022/04/11 01:50:03;;;;;;;4.43;1.85;;;21.60;56.00;;;;;;5055774;28;20486;-74
2022/04/11 01:52:29;;;;;;;2.55;1.83;;;21.50;55.50;;;;;;5075087;28;20101;-75
2022/04/11 01:54:55;;;;;;;2.42;1.85;;;21.80;56.30;;;;;;5076051;28;20059;-74
2022/04/11 01:57:21;;;;;;;3.60;2.03;;;21.70;55.50;;;;;;5074874;28;20036;-75
2022/04/11 01:59:47;;;;;;;2.83;2.20;;;21.70;54.60;;;;;;5075816;28;20064;-74
2022/04/11 02:02:13;;;;;;;5.00;2.53;;;21.70;55.50;;;;;;5079512;28;20048;-75
2022/04/11 02:04:41;;;;;;;3.42;2.40;;;21.80;55.90;;;;;;5096298;28;20047;-75
2022/04/11 02:07:07;;;;;;;3.85;2.10;;;21.70;56.00;;;;;;5086301;28;20053;-75
2022/04/11 02:09:33;;;;;;;3.38;1.98;;;21.60;55.80;;;;;;5075698;28;20071;-75
2022/04/11 02:11:59;;;;;;;4.10;2.58;;;21.70;56.00;;;;;;5075570;28;20041;-74
2022/04/11 02:14:26;;;;;;;5.05;3.03;;;21.60;55.30;;;;;;5091456;28;20032;-74
2022/04/11 02:16:52;;;;;;;4.47;2.28;;;21.70;55.60;;;;;;5090248;28;20056;-75
2022/04/11 02:19:18;;;;;;;2.90;1.92;;;21.80;55.60;;;;;;5100128;28;20100;-74
2022/04/11 02:21:44;;;;;;;3.83;2.10;;;21.60;55.30;;;;;;5097282;28;20036;-73
2022/04/11 02:24:10;;;;;;;4.28;2.17;;;21.70;55.40;;;;;;5100102;28;20044;-74
2022/04/11 02:26:36;;;;;;;5.35;2.35;;;21.80;54.40;;;;;;5091226;28;20082;-74
2022/04/11 02:29:02;;;;;;;5.00;2.25;;;21.90;55.00;;;;;;5079834;28;20041;-75
2022/04/11 02:31:28;;;;;;;6.72;2.70;;;21.80;55.40;;;;;;5076806;28;20052;-73
2022/04/11 02:33:55;;;;;;;5.07;2.25;;;21.70;54.30;;;;;;5099088;28;20038;-75
2022/04/11 02:36:22;;;;;;;5.72;2.30;;;21.80;55.40;;;;;;5090658;28;20033;-74
2022/04/11 02:38:48;;;;;;;6.55;2.50;;;21.50;55.50;;;;;;5093180;28;20028;-73
2022/04/11 02:41:14;;;;;;;4.07;1.90;;;21.70;55.70;;;;;;5099842;28;20116;-74
2022/04/11 02:43:46;;;;;;;4.13;2.00;;;21.70;55.60;;;;;;5100053;28;20096;-74
2022/04/11 02:46:14;;;;;;;3.40;2.08;;;21.60;55.10;;;;;;5089045;28;20061;-74
2022/04/11 02:48:40;;;;;;;4.80;2.40;;;21.60;55.60;;;;;;5098192;28;20080;-74
2022/04/11 02:51:26;;;;;;;2.88;2.63;;;21.60;55.50;;;;;;5097151;28;20054;-74
2022/04/11 02:54:07;;;;;;;7.65;2.33;;;21.70;55.30;;;;;;5098853;28;20039;-74
2022/04/11 02:56:35;;;;;;;4.50;2.25;;;21.60;55.60;;;;;;5086730;28;20033;-74
2022/04/11 02:59:02;;;;;;;2.10;1.80;;;21.70;55.70;;;;;;5073677;28;20047;-75
2022/04/11 03:01:29;;;;;;;3.22;2.00;;;21.60;55.60;;;;;;5085650;28;20164;-74
2022/04/11 03:03:56;;;;;;;4.28;2.38;;;21.70;55.20;;;;;;5078840;28;20047;-75
2022/04/11 03:06:30;;;;;;;4.78;2.40;;;21.70;55.40;;;;;;5077799;28;20041;-76
2022/04/11 03:08:56;;;;;;;3.50;2.45;;;21.70;55.50;;;;;;5091539;28;20045;-75
2022/04/11 03:11:30;;;;;;;5.65;2.13;;;21.60;54.30;;;;;;5094956;28;20052;-75
2022/04/11 03:13:56;;;;;;;4.00;2.80;;;21.60;55.60;;;;;;5098577;28;20063;-74
2022/04/11 03:16:23;;;;;;;5.90;3.20;;;21.60;55.80;;;;;;5078214;28;20117;-74
2022/04/11 03:18:50;;;;;;;6.88;3.20;;;21.50;55.50;;;;;;5078598;28;20049;-73
2022/04/11 03:21:16;;;;;;;3.60;2.50;;;21.50;55.70;;;;;;5087966;28;20033;-74
2022/04/11 03:23:48;;;;;;;6.43;2.42;;;21.50;55.80;;;;;;5059222;28;20591;-74
2022/04/11 03:26:15;;;;;;;3.70;2.15;;;21.50;55.40;;;;;;5069340;28;20082;-74
2022/04/11 03:28:41;;;;;;;4.13;2.40;;;21.40;56.00;;;;;;5077918;28;20093;-74
2022/04/11 03:31:07;;;;;;;2.88;1.98;;;21.40;56.10;;;;;;5094910;28;20036;-74
2022/04/11 03:33:34;;;;;;;5.60;1.92;;;21.40;56.10;;;;;;5078565;28;20059;-75
2022/04/11 03:36:01;;;;;;;3.58;2.05;;;21.50;55.60;;;;;;5090337;28;20044;-76
2022/04/11 03:38:27;;;;;;;4.45;2.03;;;21.50;56.00;;;;;;5096275;28;20100;-74
2022/04/11 03:40:54;;;;;;;2.33;1.67;;;21.40;55.80;;;;;;5063005;28;20049;-74
2022/04/11 03:43:20;;;;;;;3.00;2.40;;;21.60;55.30;;;;;;5085178;28;20044;-75
2022/04/11 03:45:47;;;;;;;3.42;1.88;;;21.60;55.30;;;;;;5080364;28;20048;-75
2022/04/11 03:48:16;;;;;;;5.03;1.80;;;21.70;55.30;;;;;;5083192;28;20041;-74
2022/04/11 03:50:42;;;;;;;3.15;2.15;;;21.80;55.20;;;;;;5078004;28;20071;-74
2022/04/11 03:53:08;;;;;;;7.85;2.28;;;21.80;55.10;;;;;;5090617;28;20134;-74
2022/04/11 03:55:37;;;;;;;3.65;2.03;;;21.60;55.40;;;;;;5079633;28;20043;-75
2022/04/11 03:58:06;;;;;;;3.67;1.63;;;21.50;55.40;;;;;;5072836;28;20097;-74
2022/04/11 04:00:36;;;;;;;5.63;2.05;;;21.40;55.20;;;;;;5057647;28;20044;-74
2022/04/11 04:03:16;;;;;;;2.83;1.95;;;21.50;54.80;;;;;;5100958;28;20040;-75
2022/04/11 04:05:48;;;;;;;3.90;1.67;;;21.60;55.70;;;;;;5077057;28;20110;-75
2022/04/11 04:08:21;;;;;;;3.83;1.60;;;21.60;55.90;;;;;;5090380;28;20049;-75
2022/04/11 04:10:56;;;;;;;3.72;2.47;;;21.50;55.40;;;;;;5072890;28;20053;-75
2022/04/11 04:13:22;;;;;;;3.10;1.85;;;21.50;56.30;;;;;;5073065;28;20097;-73
2022/04/11 04:15:49;;;;;;;5.38;2.22;;;21.50;56.20;;;;;;5074351;28;20083;-74
2022/04/11 04:18:15;;;;;;;5.03;2.05;;;21.40;55.20;;;;;;5073157;28;20051;-75
2022/04/11 04:20:42;;;;;;;2.88;1.80;;;21.60;56.00;;;;;;5071324;28;20048;-73
2022/04/11 04:23:08;;;;;;;5.47;2.03;;;21.60;56.10;;;;;;5082071;28;20041;-75
2022/04/11 04:25:36;;;;;;;2.20;1.85;;;21.70;56.00;;;;;;5058779;28;21342;-73
2022/04/11 04:28:03;;;;;;;4.25;2.20;;;21.70;56.20;;;;;;5070382;28;20053;-74
2022/04/11 04:30:32;;;;;;;3.78;1.92;;;21.70;55.90;;;;;;5071992;28;20033;-74
2022/04/11 04:32:59;;;;;;;4.97;1.95;;;21.80;56.00;;;;;;5071568;28;20055;-75
2022/04/11 04:35:27;;;;;;;2.35;1.65;;;21.80;55.30;;;;;;5078917;28;20048;-72
2022/04/11 04:37:55;;;;;;;3.25;1.50;;;21.70;48.20;;;;;;5071541;28;20070;-73
2022/04/11 04:40:21;;;;;;;2.83;1.63;;;21.70;44.60;;;;;;5071814;28;20056;-72
2022/04/11 04:42:49;;;;;;;2.25;1.63;;;21.70;44.10;;;;;;5073194;28;20079;-72
2022/04/11 04:45:19;;;;;;;5.45;2.50;;;21.60;43.50;;;;;;5071941;28;20048;-71
2022/04/11 04:48:06;;;;;;;5.63;2.60;;;21.70;42.20;;;;;;5073344;28;20094;-73
2022/04/11 04:50:35;;;;;;;4.55;2.00;;;21.80;41.80;;;;;;5072056;28;20041;-72
2022/04/11 04:53:03;;;;;;;4.28;2.60;;;21.70;43.20;;;;;;5055640;28;20037;-73
2022/04/11 04:55:30;;;;;;;2.97;1.83;;;21.80;45.20;;;;;;5073591;28;20105;-73
2022/04/11 04:57:56;;;;;;;7.00;2.55;;;21.80;44.20;;;;;;5074854;28;20047;-71
2022/04/11 05:00:23;;;;;;;4.05;2.40;;;22.00;45.90;;;;;;5074257;28;20040;-71
2022/04/11 05:02:50;;;;;;;3.25;1.85;;;22.00;42.20;;;;;;5074466;28;20041;-73
2022/04/11 05:05:21;;;;;;;3.97;2.15;;;22.00;51.10;;;;;;5072446;28;20135;-74
2022/04/11 05:07:49;;;;;;;5.90;1.90;;;22.10;55.20;;;;;;5072233;28;20063;-72
2022/04/11 05:10:18;;;;;;;3.45;2.33;;;22.30;56.70;;;;;;5080773;28;20040;-73
2022/04/11 05:12:47;;;;;;;5.35;2.90;;;22.40;57.50;;;;;;5088773;28;20024;-73
2022/04/11 05:15:15;;;;;;;7.93;2.92;;;22.40;53.60;;;;;;5092502;28;20040;-73
2022/04/11 05:17:45;;;;;;;6.32;2.20;;;22.20;49.70;;;;;;5071932;28;20037;-73
2022/04/11 05:20:12;;;;;;;4.40;2.13;;;22.10;56.90;;;;;;5083473;28;20100;-72
2022/04/11 05:22:39;;;;;;;5.93;2.33;;;22.10;57.80;;;;;;5095761;28;20040;-73
2022/04/11 05:25:07;;;;;;;3.58;2.10;;;22.10;57.30;;;;;;5093365;28;20733;-73
2022/04/11 05:27:33;;;;;;;5.68;2.47;;;22.20;57.00;;;;;;5079098;28;20079;-72
2022/04/11 05:30:00;;;;;;;3.92;1.80;;;22.30;56.80;;;;;;5079182;28;20065;-72
2022/04/11 05:32:27;;;;;;;3.30;1.83;;;22.30;56.80;;;;;;5074381;28;20065;-72
2022/04/11 05:34:55;;;;;;;5.47;2.13;;;22.10;57.70;;;;;;5088533;28;20036;-73
2022/04/11 05:37:21;;;;;;;3.72;2.10;;;22.10;55.10;;;;;;5073233;28;20060;-72
2022/04/11 05:39:47;;;;;;;5.45;2.47;;;22.20;58.60;;;;;;5055922;28;20061;-73
2022/04/11 05:42:14;;;;;;;3.67;2.00;;;22.20;58.00;;;;;;5055089;28;20071;-74
2022/04/11 05:44:41;;;;;;;1.75;1.30;;;22.10;57.50;;;;;;5074210;28;20068;-73
2022/04/11 05:47:07;;;;;;;4.63;2.13;;;22.10;58.30;;;;;;5084014;28;20044;-73
2022/04/11 05:49:41;;;;;;;4.47;2.53;;;22.30;55.70;;;;;;5074538;28;20109;-73
2022/04/11 05:52:08;;;;;;;4.35;2.35;;;22.30;56.20;;;;;;5090800;28;20072;-74
2022/04/11 05:54:40;;;;;;;3.15;2.33;;;22.20;56.30;;;;;;5078032;28;20062;-73
2022/04/11 05:57:07;;;;;;;4.75;2.50;;;22.10;57.50;;;;;;5075089;28;20052;-73
2022/04/11 05:59:34;;;;;;;3.13;1.98;;;22.10;55.80;;;;;;5072139;28;20064;-74
2022/04/11 06:02:01;;;;;;;3.67;2.42;;;22.10;57.10;;;;;;5073154;28;20047;-72
2022/04/11 06:04:27;;;;;;;3.10;2.00;;;22.00;56.10;;;;;;5078625;28;20048;-73
2022/04/11 06:06:54;;;;;;;4.85;1.85;;;22.00;55.30;;;;;;5061690;28;20033;-74
2022/04/11 06:09:20;;;;;;;5.00;2.45;;;21.90;55.40;;;;;;5056946;28;20038;-74
2022/04/11 06:11:46;;;;;;;2.67;2.28;;;21.80;54.80;;;;;;5080186;28;20032;-77
2022/04/11 06:14:14;;;;;;;1.55;1.08;;;21.80;56.40;;;;;;5087829;28;20049;-75
2022/04/11 06:16:43;;;;;;;7.13;2.25;;;21.80;55.00;;;;;;5070213;28;20041;-73
2022/04/11 06:19:09;;;;;;;3.15;1.92;;;21.70;52.90;;;;;;5071402;28;20045;-73
2022/04/11 06:21:35;;;;;;;4.63;1.88;;;21.80;53.70;;;;;;5055254;28;20041;-74
2022/04/11 06:24:02;;;;;;;2.42;1.77;;;21.80;52.70;;;;;;5071403;28;20049;-71
2022/04/11 06:26:29;;;;;;;3.78;1.55;;;21.70;48.80;;;;;;5070191;28;20045;-70
2022/04/11 06:28:55;;;;;;;6.60;2.10;;;21.50;53.70;;;;;;5071916;28;20041;-74
2022/04/11 06:31:21;;;;;;;3.50;2.30;;;21.60;51.20;;;;;;5064707;28;20045;-74
2022/04/11 06:33:52;;;;;;;7.90;2.80;;;21.60;46.20;;;;;;5055616;28;20037;-72
2022/04/11 06:36:21;;;;;;;3.17;2.05;;;21.50;45.80;;;;;;5055658;28;20045;-73
2022/04/11 06:38:48;;;;;;;5.15;1.95;;;21.50;47.50;;;;;;5075823;28;20048;-73
2022/04/11 06:41:15;;;;;;;5.32;2.72;;;21.40;43.50;;;;;;5064584;28;20053;-73
2022/04/11 06:43:41;;;;;;;2.58;2.00;;;21.30;42.60;;;;;;5074733;28;20076;-73
2022/04/11 06:46:21;;;;;;;4.22;2.75;;;21.30;46.70;;;;;;5073323;28;20041;-72
2022/04/11 06:48:48;;;;;;;5.05;2.17;;;21.30;43.40;;;;;;5074620;28;20040;-74
2022/04/11 06:51:14;;;;;;;5.30;2.33;;;21.30;47.30;;;;;;5068206;28;20068;-73
2022/04/11 06:53:40;;;;;;;6.43;2.90;;;21.30;45.00;;;;;;5055290;28;20037;-73
2022/04/11 06:56:07;;;;;;;4.57;2.30;;;21.30;46.40;;;;;;5055198;28;20044;-74
2022/04/11 06:58:33;;;;;;;3.78;2.30;;;21.20;45.50;;;;;;5054938;28;20048;-73
2022/04/11 07:00:59;;;;;;;1.98;1.48;;;21.20;51.10;;;;;;5069532;28;20048;-72
2022/04/11 07:03:29;;;;;;;4.90;2.50;;;21.40;50.30;;;;;;5066687;28;20084;-75
2022/04/11 07:05:55;;;;;;;2.35;1.60;;;21.40;49.10;;;;;;5077557;28;20033;-67
2022/04/11 07:08:21;;;;;;;0.95;0.95;;;21.70;50.50;;;;;;5075348;28;20061;-68
2022/04/11 07:10:47;;;;;;;2.63;2.10;;;21.70;49.30;;;;;;5059857;28;20033;-69
2022/04/11 07:13:14;;;;;;;3.70;2.35;;;21.80;48.70;;;;;;5097974;28;20037;-68
2022/04/11 07:15:41;;;;;;;1.80;1.70;;;22.00;47.10;;;;;;5066507;28;20048;-69
2022/04/11 07:18:07;;;;;;;5.03;1.60;;;21.90;46.60;;;;;;5078734;28;20037;-69
2022/04/11 07:20:33;;;;;;;4.03;1.92;;;22.00;47.90;;;;;;5078058;28;20043;-74
2022/04/11 07:22:59;;;;;;;8.40;2.78;;;22.00;47.70;;;;;;5078041;28;20071;-74
2022/04/11 07:25:26;;;;;;;4.57;2.35;;;22.00;46.40;;;;;;5076819;28;20092;-74
2022/04/11 07:27:52;;;;;;;6.43;2.80;;;21.90;47.50;;;;;;5078348;28;20037;-75
2022/04/11 07:30:18;;;;;;;3.78;2.70;;;21.90;47.30;;;;;;5076315;28;20120;-74
2022/04/11 07:32:44;;;;;;;7.45;2.65;;;22.00;46.30;;;;;;5075744;28;20038;-74
2022/04/11 07:35:10;;;;;;;4.63;2.42;;;21.90;48.00;;;;;;5077430;28;20047;-72
2022/04/11 07:37:36;;;;;;;5.95;3.03;;;22.00;48.60;;;;;;5078074;28;20041;-71
2022/04/11 07:40:02;;;;;;;10.95;3.30;;;22.10;48.70;;;;;;5076133;28;20068;-73
2022/04/11 07:42:29;;;;;;;5.88;3.17;;;22.00;48.60;;;;;;5077983;28;20044;-73
2022/04/11 07:44:55;;;;;;;8.02;3.38;;;22.00;48.80;;;;;;5076311;28;20104;-73
2022/04/11 07:47:21;;;;;;;3.72;2.45;;;21.90;52.50;;;;;;5078073;28;20039;-72
2022/04/11 07:49:47;;;;;;;5.78;2.47;;;22.00;55.40;;;;;;5077013;28;20080;-72
2022/04/11 07:52:13;;;;;;;8.73;2.83;;;22.00;52.20;;;;;;5077958;28;20037;-73
2022/04/11 07:54:43;;;;;;;4.30;2.22;;;21.90;52.70;;;;;;5077594;28;20044;-73
2022/04/11 07:57:09;;;;;;;4.32;2.40;;;21.90;52.30;;;;;;5077205;28;20045;-73
2022/04/11 07:59:35;;;;;;;6.30;1.92;;;21.90;48.90;;;;;;5074233;28;20048;-73
2022/04/11 08:02:01;;;;;;;5.40;2.50;;;22.00;51.50;;;;;;5075574;28;20116;-73
2022/04/11 08:04:27;;;;;;;2.55;1.70;;;21.90;51.40;;;;;;5082494;28;20032;-72
2022/04/11 08:06:53;;;;;;;5.35;2.33;;;21.90;51.80;;;;;;5096460;28;20040;-74
2022/04/11 08:09:19;;;;;;;5.40;2.30;;;22.00;51.20;;;;;;5090139;28;20086;-74
2022/04/11 08:11:45;;;;;;;3.20;1.88;;;21.90;48.10;;;;;;5074311;28;20074;-74
2022/04/11 08:14:11;;;;;;;2.85;2.05;;;22.00;49.20;;;;;;5095733;28;20040;-73
2022/04/11 08:16:37;;;;;;;4.90;1.95;;;21.70;50.00;;;;;;5066027;28;20044;-73
2022/04/11 08:19:03;;;;;;;4.22;1.63;;;21.80;47.40;;;;;;5084015;28;20053;-73
2022/04/11 08:21:29;;;;;;;4.65;2.40;;;21.70;46.60;;;;;;5094703;28;20067;-73
2022/04/11 08:23:55;;;;;;;3.65;1.90;;;21.60;48.30;;;;;;5073092;28;20032;-74
2022/04/11 08:26:22;;;;;;;2.28;1.88;;;21.50;51.90;;;;;;5065240;28;20052;-74
2022/04/11 08:28:48;;;;;;;7.85;2.33;;;21.50;52.60;;;;;;5075971;28;20068;-72
2022/04/11 08:31:14;;;;;;;2.17;1.58;;;21.60;51.30;;;;;;5073137;28;20033;-72
2022/04/11 08:33:40;;;;;;;1.90;1.77;;;21.60;54.50;;;;;;5063829;28;20041;-73
2022/04/11 08:36:07;;;;;;;4.45;2.40;;;21.50;55.50;;;;;;5056875;28;20110;-73
2022/04/11 08:38:33;;;;;;;4.45;2.13;;;21.60;50.80;;;;;;5056773;28;20029;-73
2022/04/11 08:41:02;;;;;;;3.28;1.52;;;21.60;54.10;;;;;;5063578;28;20041;-73
2022/04/11 08:43:30;;;;;;;3.92;1.77;;;21.60;55.90;;;;;;5076922;28;20041;-74
2022/04/11 08:46:01;;;;;;;2.92;2.10;;;21.70;55.70;;;;;;5074932;28;20041;-73
2022/04/11 08:48:27;;;;;;;1.30;0.90;;;21.80;54.20;;;;;;5076801;28;20053;-73
2022/04/11 08:50:53;;;;;;;2.35;1.85;;;21.80;57.20;;;;;;5075050;28;20040;-72
2022/04/11 08:53:22;;;;;;;4.53;2.80;;;21.80;54.40;;;;;;5075223;28;20080;-71
2022/04/11 08:55:51;;;;;;;3.75;1.70;;;21.90;52.40;;;;;;5061913;28;20053;-71
2022/04/11 08:58:18;;;;;;;5.88;2.00;;;21.80;56.80;;;;;;5056630;28;20045;-71
2022/04/11 09:00:45;;;;;;;3.00;2.10;;;21.90;56.80;;;;;;5061895;28;20051;-71
2022/04/11 09:03:11;;;;;;;2.90;2.08;;;22.00;53.00;;;;;;5074921;28;20037;-72
2022/04/11 09:05:37;;;;;;;3.22;1.98;;;21.90;54.90;;;;;;5076295;28;20040;-71
2022/04/11 09:08:04;;;;;;;3.28;2.53;;;21.90;53.60;;;;;;5076576;28;20041;-71
2022/04/11 09:10:32;;;;;;;3.65;1.70;;;22.00;57.30;;;;;;5075841;28;20044;-71
2022/04/11 09:13:01;;;;;;;5.70;2.28;;;21.90;53.10;;;;;;5085781;28;20105;-71
2022/04/11 09:15:28;;;;;;;1.77;1.67;;;22.00;55.90;;;;;;5071854;28;20033;-71
2022/04/11 09:17:56;;;;;;;4.43;1.83;;;21.90;56.30;;;;;;5072687;28;20067;-72
2022/04/11 09:20:27;;;;;;;7.28;1.95;;;22.00;50.70;;;;;;5076090;28;20076;-70
2022/04/11 09:22:54;;;;;;;2.60;1.80;;;21.90;51.50;;;;;;5074748;28;20048;-72
2022/04/11 09:25:23;;;;;;;4.05;1.70;;;21.80;45.60;;;;;;5075305;28;20094;-73
2022/04/11 09:28:06;;;;;;;3.35;1.50;;;22.00;40.40;;;;;;5075101;28;20104;-71
2022/04/11 09:30:33;;;;;;;1.95;1.40;;;22.20;43.30;;;;;;5075576;28;20037;-72
2022/04/11 09:33:05;;;;;;;3.10;1.60;;;22.20;38.50;;;;;;5074848;28;20095;-71
2022/04/11 09:35:35;;;;;;;8.35;1.95;;;22.40;40.70;;;;;;5075988;28;20045;-72
2022/04/11 09:38:19;;;;;;;10.75;2.33;;;22.30;38.70;;;;;;5076136;28;20040;-72
2022/04/11 09:40:49;;;;;;;2.60;1.50;;;22.40;41.40;;;;;;5071731;28;20074;-73
2022/04/11 09:43:27;;;;;;;0.88;0.88;;;22.60;42.40;;;;;;5055950;28;20056;-73
2022/04/11 09:45:55;;;;;;;6.10;1.92;;;22.70;47.80;;;;;;5055685;28;20044;-72
2022/04/11 09:48:26;;;;;;;6.00;2.15;;;22.90;48.80;;;;;;5067306;28;20041;-73
2022/04/11 09:50:54;;;;;;;1.63;1.45;;;23.10;48.30;;;;;;5076122;28;20139;-72
2022/04/11 09:53:29;;;;;;;3.70;1.90;;;23.00;40.10;;;;;;5075229;28;20037;-72
2022/04/11 09:55:57;;;;;;;3.53;1.75;;;23.00;38.00;;;;;;5063180;28;20049;-73
2022/04/11 09:58:24;;;;;;;3.30;1.52;;;23.00;36.70;;;;;;5075545;28;20059;-73
2022/04/11 10:00:53;;;;;;;6.15;2.65;;;22.80;36.30;;;;;;5075479;28;20041;-71
2022/04/11 10:03:23;;;;;;;3.80;1.80;;;22.80;35.30;;;;;;5055977;28;20045;-71
2022/04/11 10:05:50;;;;;;;2.67;1.60;;;22.70;35.80;;;;;;5078233;28;20044;-71
2022/04/11 10:08:18;;;;;;;1.33;1.10;;;22.70;36.20;;;;;;5073816;28;20045;-71
2022/04/11 10:10:44;;;;;;;1.55;1.00;;;22.80;35.70;;;;;;5078264;28;20056;-70
2022/04/11 10:13:13;;;;;;;2.97;1.33;;;22.70;36.70;;;;;;5079592;28;20068;-72
2022/04/11 10:15:40;;;;;;;3.53;1.08;;;22.70;36.20;;;;;;5070587;28;20041;-71
2022/04/11 10:18:09;;;;;;;1.63;1.27;;;22.70;44.70;;;;;;5064533;28;20045;-74
2022/04/11 10:20:38;;;;;;;3.22;1.50;;;22.90;44.50;;;;;;5080312;28;20060;-73
2022/04/11 10:23:12;;;;;;;1.00;1.00;;;23.10;50.80;;;;;;5087916;28;20044;-74
2022/04/11 10:25:50;;;;;;;3.58;1.27;;;23.20;50.30;;;;;;5095472;28;20041;-73
2022/04/11 10:28:19;;;;;;;0.90;0.90;;;23.20;50.70;;;;;;5073464;28;20033;-73
2022/04/11 10:31:03;;;;;;;3.88;1.58;;;23.30;52.50;;;;;;5067796;28;20036;-72
2022/04/11 10:33:40;;;;;;;2.40;1.27;;;23.50;46.50;;;;;;5055667;28;20038;-72
2022/04/11 10:36:37;;;;;;;5.32;1.77;;;23.30;38.20;;;;;;5057563;28;20045;-71
2022/04/11 10:39:15;;;;;;;2.25;1.33;;;23.40;45.30;;;;;;5067416;28;20060;-71
2022/04/11 10:41:56;;;;;;;3.28;1.63;;;23.20;51.20;;;;;;5094129;28;20135;-72
2022/04/11 10:44:50;;;;;;;1.85;1.60;;;23.30;50.20;;;;;;5099182;28;20050;-71
2022/04/11 10:47:16;;;;;;;2.45;1.42;;;23.20;51.60;;;;;;5079762;28;20059;-72
2022/04/11 10:49:49;;;;;;;3.88;1.58;;;23.20;50.70;;;;;;5099161;28;20052;-73
2022/04/11 10:52:28;;;;;;;1.58;1.00;;;23.20;49.60;;;;;;5092333;28;20037;-72
2022/04/11 10:55:04;;;;;;;2.83;1.60;;;23.10;51.20;;;;;;5098801;28;20044;-72
2022/04/11 10:57:34;;;;;;;2.22;1.77;;;23.30;49.70;;;;;;5096588;28;20044;-71
2022/04/11 11:00:13;;;;;;;1.75;1.38;;;23.20;52.10;;;;;;5098438;28;20078;-71
2022/04/11 11:02:48;;;;;;;2.90;1.63;;;23.20;51.10;;;;;;5083305;28;20059;-71
2022/04/11 11:05:28;;;;;;;2.10;0.80;;;23.10;50.70;;;;;;5089123;28;20040;-71
2022/04/11 11:08:09;;;;;;;2.10;1.02;;;23.00;51.60;;;;;;5078773;28;20049;-72
2022/04/11 11:10:46;;;;;;;2.08;1.55;;;23.10;52.20;;;;;;5078783;28;20039;-72
2022/04/11 11:13:26;;;;;;;5.50;1.75;;;23.00;51.90;;;;;;5076325;28;20044;-72
2022/04/11 11:15:54;;;;;;;3.42;2.25;;;23.10;51.70;;;;;;5092053;28;20037;-73
2022/04/11 11:18:21;;;;;;;2.13;1.33;;;23.10;50.20;;;;;;5074953;28;20051;-72
2022/04/11 11:20:52;;;;;;;2.15;1.75;;;23.00;52.10;;;;;;5080718;28;20067;-72
2022/04/11 11:23:31;;;;;;;3.13;1.50;;;23.00;51.10;;;;;;5098137;28;20036;-72
2022/04/11 11:26:13;;;;;;;2.30;1.50;;;23.10;51.60;;;;;;5076459;28;20042;-71
2022/04/11 11:28:43;;;;;;;2.70;1.10;;;23.10;50.60;;;;;;5089736;28;20074;-74
2022/04/11 11:31:10;;;;;;;2.67;1.50;;;23.10;45.10;;;;;;5096651;28;20104;-71
2022/04/11 11:33:37;;;;;;;3.35;1.75;;;23.00;40.30;;;;;;5081688;28;20033;-72
2022/04/11 11:36:03;;;;;;;10.50;1.85;;;23.00;40.40;;;;;;5075817;28;20100;-71
2022/04/11 11:38:31;;;;;;;1.20;0.65;;;22.90;40.20;;;;;;5076240;28;20047;-71
2022/04/11 11:40:59;;;;;;;1.73;1.13;;;23.10;45.20;;;;;;5063080;28;20041;-71
2022/04/11 11:43:27;;;;;;;2.15;1.55;;;23.10;41.60;;;;;;5086527;28;20065;-70
2022/04/11 11:46:22;;;;;;;3.45;1.60;;;23.20;41.80;;;;;;5092838;28;20032;-71
2022/04/11 11:48:49;;;;;;;0.93;0.93;;;23.10;43.50;;;;;;5070778;28;20045;-70
2022/04/11 11:51:15;;;;;;;3.10;1.55;;;23.00;46.80;;;;;;5081334;28;20075;-67
2022/04/11 11:53:52;;;;;;;3.42;1.10;;;23.00;42.70;;;;;;5075807;28;20041;-70
2022/04/11 11:56:20;;;;;;;5.28;1.50;;;23.10;42.80;;;;;;5073645;28;20062;-68
2022/04/11 11:58:47;;;;;;;1.73;1.63;;;23.00;37.90;;;;;;5070658;28;20045;-68
2022/04/11 12:01:14;;;;;;;4.00;1.73;;;22.90;33.50;;;;;;5068003;28;20048;-69
2022/04/11 12:06:32;;;;;;;1.20;0.68;;;22.80;32.50;;;;;;5072697;28;20053;-69
2022/04/11 12:09:03;;;;;;;1.38;1.23;;;22.80;30.90;;;;;;5076224;28;20082;-69
2022/04/11 12:11:31;;;;;;;1.83;1.55;;;22.90;32.00;;;;;;5079580;28;20041;-67
2022/04/11 12:14:08;;;;;;;3.75;1.55;;;22.70;30.20;;;;;;5081791;28;20103;-72
2022/04/11 12:16:54;;;;;;;2.13;1.73;;;22.70;32.70;;;;;;5077573;28;20064;-72
2022/04/11 12:19:32;;;;;;;1.17;1.08;;;22.70;34.00;;;;;;5074312;28;20160;-73
2022/04/11 12:22:10;;;;;;;2.88;2.08;;;22.70;33.10;;;;;;5067531;28;20045;-74
2022/04/11 12:24:37;;;;;;;2.28;1.65;;;22.70;33.20;;;;;;5078389;28;20091;-73
2022/04/11 12:27:03;;;;;;;3.20;2.15;;;22.60;35.40;;;;;;5081359;28;20056;-74
2022/04/11 12:29:39;;;;;;;1.52;1.42;;;22.70;35.20;;;;;;5076700;28;20083;-74
2022/04/11 12:32:11;;;;;;;0.90;0.90;;;22.60;36.50;;;;;;5080916;28;20061;-73
2022/04/11 12:34:39;;;;;;;3.75;2.08;;;22.70;35.70;;;;;;5076866;28;20040;-73
2022/04/11 12:37:07;;;;;;;4.90;1.80;;;22.60;40.80;;;;;;5061184;28;20038;-73
2022/04/11 12:39:56;;;;;;;4.75;2.80;;;22.60;42.40;;;;;;5060414;28;20048;-73
2022/04/11 12:42:26;;;;;;;4.05;2.20;;;22.70;42.20;;;;;;5056983;28;20061;-73
2022/04/11 12:45:07;;;;;;;3.00;1.98;;;22.70;38.30;;;;;;5057058;28;20037;-73
2022/04/11 12:47:53;;;;;;;4.82;2.47;;;22.60;38.30;;;;;;5071831;28;20044;-73
2022/04/11 12:50:22;;;;;;;5.65;1.58;;;22.60;38.90;;;;;;5085187;28;20036;-73
2022/04/11 12:52:48;;;;;;;4.55;2.05;;;22.50;41.50;;;;;;5097034;28;20701;-73
2022/04/11 12:55:22;;;;;;;2.97;1.73;;;22.50;40.10;;;;;;5088233;28;20036;-73
2022/04/11 12:58:03;;;;;;;4.28;1.52;;;22.60;40.40;;;;;;5096412;28;20564;-73
2022/04/11 13:00:32;;;;;;;3.42;1.88;;;22.50;41.90;;;;;;5074692;28;20041;-73